createdAt,value
2023-02-27T00:00:47.188Z,1.70
2023-02-27T00:01:47.177Z,1.50
2023-02-27T00:02:47.179Z,1.90
2023-02-27T00:03:47.167Z,1.60
2023-02-27T00:04:47.198Z,1.30
2023-02-27T00:05:47.132Z,1.60
2023-02-27T00:06:47.124Z,1.60
2023-02-27T00:07:47.101Z,1.70
2023-02-27T00:08:47.162Z,1.20
2023-02-27T00:09:47.080Z,1.80
2023-02-27T00:10:47.105Z,1.70
2023-02-27T00:11:47.052Z,1.90
2023-02-27T00:12:47.045Z,1.50
2023-02-27T00:13:47.040Z,1.60
2023-02-27T00:14:47.044Z,1.60
2023-02-27T00:15:47.070Z,2.10
2023-02-27T00:16:47.134Z,1.60
2023-02-27T00:17:47.004Z,1.90
2023-02-27T00:18:46.988Z,1.70
2023-02-27T00:19:47.002Z,1.50
2023-02-27T00:20:46.975Z,1.70
2023-02-27T00:21:46.956Z,1.70
2023-02-27T00:22:47.016Z,1.80
2023-02-27T00:23:46.996Z,1.70
2023-02-27T00:24:46.935Z,1.90
2023-02-27T00:25:46.915Z,1.70
2023-02-27T00:26:46.914Z,1.80
2023-02-27T00:27:46.922Z,2.10
2023-02-27T00:28:46.902Z,1.90
2023-02-27T00:29:46.858Z,1.30
2023-02-27T00:30:46.898Z,1.50
2023-02-27T00:31:47.022Z,1.50
2023-02-27T00:32:46.837Z,1.90
2023-02-27T00:33:46.861Z,1.50
2023-02-27T00:34:46.803Z,1.60
2023-02-27T00:35:46.797Z,1.60
2023-02-27T00:36:46.788Z,2.10
2023-02-27T00:37:46.781Z,2.00
2023-02-27T00:38:46.783Z,1.80
2023-02-27T00:39:46.788Z,1.80
2023-02-27T00:40:46.729Z,2.10
2023-02-27T00:41:46.730Z,1.80
2023-02-27T00:42:46.779Z,1.80
2023-02-27T00:43:46.740Z,1.40
2023-02-27T00:44:46.758Z,1.80
2023-02-27T00:45:46.714Z,1.80
2023-02-27T00:46:46.772Z,1.60
2023-02-27T00:47:46.673Z,1.60
2023-02-27T00:48:46.650Z,1.40
2023-02-27T00:49:46.667Z,1.90
2023-02-27T00:50:46.648Z,1.50
2023-02-27T00:51:46.668Z,1.40
2023-02-27T00:52:46.611Z,1.90
2023-02-27T00:53:46.598Z,1.70
2023-02-27T00:54:46.593Z,1.60
2023-02-27T00:55:46.574Z,1.90
2023-02-27T00:56:46.590Z,1.70
2023-02-27T00:57:46.558Z,1.60
2023-02-27T00:58:46.548Z,1.70
2023-02-27T00:59:46.541Z,1.60
2023-02-27T01:00:46.568Z,1.70
2023-02-27T01:01:46.517Z,1.60
2023-02-27T01:02:46.594Z,1.30
2023-02-27T01:03:46.503Z,1.50
2023-02-27T01:04:46.521Z,1.30
2023-02-27T01:05:46.476Z,1.50
2023-02-27T01:06:46.465Z,1.80
2023-02-27T01:07:46.496Z,1.50
2023-02-27T01:08:46.442Z,1.70
2023-02-27T01:09:46.540Z,1.50
2023-02-27T01:10:46.404Z,1.50
2023-02-27T01:11:46.413Z,1.60
2023-02-27T01:12:46.394Z,1.70
2023-02-27T01:13:46.411Z,1.50
2023-02-27T01:14:46.376Z,1.70
2023-02-27T01:15:46.360Z,1.60
2023-02-27T01:16:46.353Z,1.60
2023-02-27T01:17:46.343Z,1.30
2023-02-27T01:18:46.405Z,1.60
2023-02-27T01:19:46.332Z,1.50
2023-02-27T01:20:46.304Z,1.40
2023-02-27T01:21:46.326Z,1.50
2023-02-27T01:22:46.279Z,1.30
2023-02-27T01:23:46.289Z,1.40
2023-02-27T01:24:46.317Z,1.40
2023-02-27T01:25:46.265Z,1.30
2023-02-27T01:26:46.249Z,1.30
2023-02-27T01:27:46.229Z,1.60
2023-02-27T01:28:46.222Z,1.60
2023-02-27T01:29:46.261Z,1.50
2023-02-27T01:30:46.244Z,1.00
2023-02-27T01:31:46.300Z,1.20
2023-02-27T01:32:46.260Z,1.10
2023-02-27T01:33:46.172Z,1.50
2023-02-27T01:34:46.161Z,1.60
2023-02-27T01:35:46.182Z,1.20
2023-02-27T01:36:46.144Z,1.60
2023-02-27T01:37:46.119Z,1.40
2023-02-27T01:38:46.111Z,1.30
2023-02-27T01:39:46.110Z,1.20
2023-02-27T01:40:46.109Z,1.30
2023-02-27T01:41:46.122Z,1.30
2023-02-27T01:42:46.071Z,1.20
2023-02-27T01:43:46.067Z,1.20
2023-02-27T01:44:46.038Z,1.20
2023-02-27T01:45:46.040Z,1.40
2023-02-27T01:46:46.052Z,1.10
2023-02-27T01:47:46.060Z,1.40
2023-02-27T01:48:45.996Z,1.10
2023-02-27T01:49:45.998Z,1.00
2023-02-27T01:50:45.977Z,1.30
2023-02-27T01:51:45.976Z,1.20
2023-02-27T01:52:45.951Z,1.30
2023-02-27T01:53:46.019Z,1.50
2023-02-27T01:54:45.935Z,1.00
2023-02-27T01:55:45.930Z,1.00
2023-02-27T01:56:45.908Z,1.00
2023-02-27T01:57:45.887Z,1.20
2023-02-27T01:58:45.891Z,1.50
2023-02-27T01:59:45.909Z,1.30
2023-02-27T02:00:45.868Z,1.20
2023-02-27T02:01:45.860Z,1.10
2023-02-27T02:02:45.839Z,1.30
2023-02-27T02:03:45.819Z,1.10
2023-02-27T02:04:45.842Z,1.20
2023-02-27T02:05:45.807Z,1.00
2023-02-27T02:06:45.812Z,1.30
2023-02-27T02:07:45.803Z,1.30
2023-02-27T02:08:45.776Z,1.30
2023-02-27T02:09:45.765Z,1.20
2023-02-27T02:10:45.770Z,1.10
2023-02-27T02:11:45.737Z,0.90
2023-02-27T02:12:45.730Z,1.30
2023-02-27T02:13:45.729Z,0.90
2023-02-27T02:14:45.707Z,1.20
2023-02-27T02:15:45.721Z,0.80
2023-02-27T02:16:45.728Z,1.10
2023-02-27T02:17:45.759Z,1.20
2023-02-27T02:18:45.667Z,1.10
2023-02-27T02:19:45.666Z,1.20
2023-02-27T02:20:45.635Z,1.00
2023-02-27T02:21:45.720Z,1.00
2023-02-27T02:22:45.632Z,1.30
2023-02-27T02:23:45.626Z,1.40
2023-02-27T02:24:45.607Z,1.30
2023-02-27T02:25:45.582Z,1.20
2023-02-27T02:26:45.598Z,1.20
2023-02-27T02:27:45.590Z,1.10
2023-02-27T02:28:45.552Z,1.10
2023-02-27T02:29:45.549Z,1.30
2023-02-27T02:30:45.581Z,1.40
2023-02-27T02:31:45.636Z,1.00
2023-02-27T02:32:45.570Z,1.10
2023-02-27T02:33:45.552Z,1.50
2023-02-27T02:34:45.534Z,1.40
2023-02-27T02:35:45.531Z,1.20
2023-02-27T02:36:45.487Z,1.20
2023-02-27T02:37:45.447Z,1.00
2023-02-27T02:38:45.471Z,1.20
2023-02-27T02:39:45.461Z,1.20
2023-02-27T02:40:45.425Z,1.30
2023-02-27T02:41:45.414Z,1.10
2023-02-27T02:42:45.404Z,1.30
2023-02-27T02:43:45.388Z,1.30
2023-02-27T02:44:45.409Z,1.00
2023-02-27T02:45:45.384Z,1.30
2023-02-27T02:46:45.348Z,1.00
2023-02-27T02:47:45.349Z,1.30
2023-02-27T02:48:45.340Z,1.20
2023-02-27T02:49:45.331Z,1.20
2023-02-27T02:50:45.338Z,1.00
2023-02-27T02:51:45.289Z,1.00
2023-02-27T02:52:45.278Z,1.20
2023-02-27T02:53:45.280Z,1.30
2023-02-27T02:54:45.259Z,1.10
2023-02-27T02:55:45.268Z,1.30
2023-02-27T02:56:45.267Z,1.20
2023-02-27T02:57:45.230Z,0.90
2023-02-27T02:58:45.220Z,1.20
2023-02-27T02:59:45.211Z,1.20
2023-02-27T03:00:45.206Z,1.20
2023-02-27T03:01:45.280Z,1.00
2023-02-27T03:02:45.172Z,1.00
2023-02-27T03:03:45.152Z,1.10
2023-02-27T03:04:45.324Z,1.20
2023-02-27T03:05:45.141Z,1.00
2023-02-27T03:06:45.153Z,1.10
2023-02-27T03:07:45.153Z,1.10
2023-02-27T03:08:45.106Z,1.40
2023-02-27T03:09:45.141Z,1.20
2023-02-27T03:10:45.090Z,1.10
2023-02-27T03:11:45.073Z,1.20
2023-02-27T03:12:45.109Z,1.30
2023-02-27T03:13:45.131Z,1.50
2023-02-27T03:14:45.056Z,1.20
2023-02-27T03:15:45.074Z,1.30
2023-02-27T03:16:45.029Z,1.10
2023-02-27T03:17:45.011Z,1.30
2023-02-27T03:18:45.082Z,1.20
2023-02-27T03:19:44.990Z,1.40
2023-02-27T03:20:45.007Z,1.20
2023-02-27T03:21:44.964Z,1.20
2023-02-27T03:22:44.950Z,1.10
2023-02-27T03:23:44.945Z,1.10
2023-02-27T03:24:44.973Z,1.50
2023-02-27T03:25:44.917Z,1.30
2023-02-27T03:26:44.920Z,1.30
2023-02-27T03:27:44.892Z,1.30
2023-02-27T03:28:44.886Z,1.50
2023-02-27T03:29:44.931Z,1.00
2023-02-27T03:30:45.016Z,1.20
2023-02-27T03:31:45.038Z,1.10
2023-02-27T03:32:44.952Z,1.10
2023-02-27T03:33:44.857Z,1.10
2023-02-27T03:34:44.841Z,1.10
2023-02-27T03:35:44.898Z,1.00
2023-02-27T03:36:44.826Z,1.50
2023-02-27T03:37:44.771Z,1.20
2023-02-27T03:38:44.786Z,1.20
2023-02-27T03:39:44.778Z,1.10
2023-02-27T03:40:44.810Z,1.40
2023-02-27T03:41:44.778Z,1.20
2023-02-27T03:42:44.730Z,1.20
2023-02-27T03:43:44.774Z,0.90
2023-02-27T03:44:44.703Z,1.30
2023-02-27T03:45:44.714Z,1.10
2023-02-27T03:46:44.752Z,1.20
2023-02-27T03:47:44.799Z,1.30
2023-02-27T03:48:44.825Z,1.20
2023-02-27T03:49:44.644Z,1.20
2023-02-27T03:50:44.646Z,1.10
2023-02-27T03:51:44.653Z,0.90
2023-02-27T03:52:44.643Z,1.20
2023-02-27T03:53:44.634Z,1.10
2023-02-27T03:54:44.595Z,1.00
2023-02-27T03:55:44.571Z,1.00
2023-02-27T03:56:44.581Z,0.90
2023-02-27T03:57:44.627Z,0.90
2023-02-27T03:58:44.655Z,1.30
2023-02-27T03:59:44.586Z,1.20
2023-02-27T04:00:44.588Z,1.30
2023-02-27T04:01:44.622Z,1.10
2023-02-27T04:02:44.611Z,1.20
2023-02-27T04:03:44.621Z,1.00
2023-02-27T04:04:44.576Z,1.50
2023-02-27T04:05:44.479Z,1.20
2023-02-27T04:06:44.568Z,1.00
2023-02-27T04:07:44.455Z,1.00
2023-02-27T04:08:44.564Z,1.10
2023-02-27T04:09:44.472Z,1.50
2023-02-27T04:10:44.479Z,1.10
2023-02-27T04:11:44.404Z,1.10
2023-02-27T04:12:45.882Z,1.30
2023-02-27T04:13:44.399Z,0.90
2023-02-27T04:14:44.376Z,1.40
2023-02-27T04:15:44.425Z,1.30
2023-02-27T04:16:44.517Z,1.10
2023-02-27T04:17:44.329Z,0.90
2023-02-27T04:18:44.317Z,1.30
2023-02-27T04:19:44.327Z,1.40
2023-02-27T04:20:44.319Z,1.30
2023-02-27T04:21:44.295Z,1.40
2023-02-27T04:22:44.303Z,1.30
2023-02-27T04:23:44.280Z,1.20
2023-02-27T04:24:44.255Z,1.20
2023-02-27T04:25:44.252Z,1.10
2023-02-27T04:26:44.246Z,1.40
2023-02-27T04:27:44.300Z,1.20
2023-02-27T04:28:44.249Z,1.20
2023-02-27T04:29:44.202Z,1.20
2023-02-27T04:30:44.221Z,1.50
2023-02-27T04:31:44.449Z,1.70
2023-02-27T04:32:44.260Z,1.20
2023-02-27T04:33:44.219Z,1.00
2023-02-27T04:34:44.924Z,1.20
2023-02-27T04:35:44.173Z,1.20
2023-02-27T04:36:44.142Z,1.10
2023-02-27T04:37:44.123Z,1.30
2023-02-27T04:38:44.150Z,1.40
2023-02-27T04:39:44.132Z,1.50
2023-02-27T04:40:44.117Z,1.30
2023-02-27T04:41:44.062Z,1.30
2023-02-27T04:42:44.082Z,1.10
2023-02-27T04:43:44.057Z,1.10
2023-02-27T04:44:44.095Z,1.20
2023-02-27T04:45:44.190Z,1.40
2023-02-27T04:46:44.009Z,1.20
2023-02-27T04:47:43.996Z,1.60
2023-02-27T04:48:43.997Z,1.50
2023-02-27T04:49:43.979Z,1.30
2023-02-27T04:50:43.979Z,1.10
2023-02-27T04:51:44.104Z,1.20
2023-02-27T04:52:44.255Z,1.20
2023-02-27T04:53:43.937Z,1.00
2023-02-27T04:54:43.941Z,1.20
2023-02-27T04:55:43.936Z,1.30
2023-02-27T04:56:43.940Z,1.60
2023-02-27T04:57:43.930Z,1.30
2023-02-27T04:58:43.912Z,0.90
2023-02-27T04:59:43.879Z,1.10
2023-02-27T05:00:43.866Z,1.30
2023-02-27T05:01:43.870Z,1.20
2023-02-27T05:02:43.945Z,1.50
2023-02-27T05:03:43.840Z,1.10
2023-02-27T05:04:43.815Z,1.10
2023-02-27T05:05:43.829Z,1.10
2023-02-27T05:06:43.842Z,1.50
2023-02-27T05:07:43.790Z,1.10
2023-02-27T05:08:43.822Z,1.40
2023-02-27T05:09:43.793Z,1.30
2023-02-27T05:10:43.761Z,1.30
2023-02-27T05:11:43.756Z,1.20
2023-02-27T05:12:43.735Z,1.20
2023-02-27T05:13:43.780Z,1.40
2023-02-27T05:14:43.750Z,1.50
2023-02-27T05:15:43.735Z,0.80
2023-02-27T05:16:43.823Z,1.40
2023-02-27T05:17:43.695Z,1.40
2023-02-27T05:18:43.670Z,1.50
2023-02-27T05:19:43.700Z,1.50
2023-02-27T05:20:43.660Z,1.20
2023-02-27T05:21:43.621Z,1.10
2023-02-27T05:22:43.631Z,1.50
2023-02-27T05:23:43.657Z,1.60
2023-02-27T05:24:43.636Z,1.10
2023-02-27T05:25:43.634Z,1.10
2023-02-27T05:26:43.565Z,1.00
2023-02-27T05:27:43.561Z,1.60
2023-02-27T05:28:44.973Z,1.30
2023-02-27T05:29:43.535Z,1.50
2023-02-27T05:30:43.566Z,1.40
2023-02-27T05:31:43.667Z,1.20
2023-02-27T05:32:43.536Z,1.40
2023-02-27T05:33:43.556Z,1.60
2023-02-27T05:34:43.494Z,1.40
2023-02-27T05:35:43.505Z,1.30
2023-02-27T05:36:43.455Z,1.50
2023-02-27T05:37:43.497Z,1.20
2023-02-27T05:38:43.453Z,1.70
2023-02-27T05:39:43.420Z,1.80
2023-02-27T05:40:45.795Z,1.70
2023-02-27T05:41:43.570Z,2.00
2023-02-27T05:42:43.424Z,1.70
2023-02-27T05:43:43.382Z,1.60
2023-02-27T05:44:43.382Z,1.70
2023-02-27T05:45:43.388Z,1.60
2023-02-27T05:46:43.349Z,1.50
2023-02-27T05:47:43.321Z,1.40
2023-02-27T05:48:43.371Z,1.60
2023-02-27T05:49:43.310Z,1.50
2023-02-27T05:50:43.297Z,1.50
2023-02-27T05:51:43.304Z,1.60
2023-02-27T05:52:43.271Z,1.80
2023-02-27T05:53:43.276Z,1.60
2023-02-27T05:54:43.306Z,1.80
2023-02-27T05:55:43.264Z,1.80
2023-02-27T05:56:43.277Z,2.10
2023-02-27T05:57:43.229Z,1.70
2023-02-27T05:58:43.206Z,1.70
2023-02-27T05:59:43.201Z,1.70
2023-02-27T06:00:43.223Z,2.00
2023-02-27T06:01:45.179Z,1.60
2023-02-27T06:02:43.185Z,1.40
2023-02-27T06:03:43.260Z,1.40
2023-02-27T06:04:43.156Z,1.20
2023-02-27T06:05:43.146Z,1.80
2023-02-27T06:06:43.158Z,2.00
2023-02-27T06:07:43.103Z,2.10
2023-02-27T06:08:43.155Z,2.10
2023-02-27T06:09:43.147Z,1.60
2023-02-27T06:10:43.081Z,1.70
2023-02-27T06:11:43.069Z,2.10
2023-02-27T06:12:44.483Z,1.70
2023-02-27T06:13:43.048Z,1.80
2023-02-27T06:14:43.052Z,1.60
2023-02-27T06:15:43.086Z,1.70
2023-02-27T06:16:43.062Z,1.50
2023-02-27T06:17:43.040Z,1.80
2023-02-27T06:18:43.034Z,1.50
2023-02-27T06:19:43.020Z,1.70
2023-02-27T06:20:42.971Z,1.80
2023-02-27T06:21:42.983Z,1.60
2023-02-27T06:22:42.952Z,2.00
2023-02-27T06:23:43.040Z,1.80
2023-02-27T06:24:42.918Z,1.80
2023-02-27T06:25:42.917Z,1.50
2023-02-27T06:26:42.902Z,1.90
2023-02-27T06:27:42.893Z,2.00
2023-02-27T06:28:42.898Z,1.80
2023-02-27T06:29:42.888Z,2.10
2023-02-27T06:30:44.681Z,1.60
2023-02-27T06:31:42.870Z,1.70
2023-02-27T06:32:42.931Z,2.00
2023-02-27T06:33:43.008Z,1.70
2023-02-27T06:34:42.830Z,1.90
2023-02-27T06:35:42.890Z,1.90
2023-02-27T06:36:42.804Z,1.70
2023-02-27T06:37:42.814Z,2.00
2023-02-27T06:38:42.791Z,2.00
2023-02-27T06:39:42.758Z,1.80
2023-02-27T06:40:42.829Z,1.90
2023-02-27T06:41:42.752Z,1.70
2023-02-27T06:42:42.726Z,1.90
2023-02-27T06:43:42.712Z,1.90
2023-02-27T06:44:42.746Z,1.90
2023-02-27T06:45:42.700Z,2.00
2023-02-27T06:46:42.762Z,2.10
2023-02-27T06:47:42.700Z,2.60
2023-02-27T06:48:42.665Z,2.20
2023-02-27T06:49:42.648Z,1.70
2023-02-27T06:50:42.639Z,1.80
2023-02-27T06:51:44.917Z,1.70
2023-02-27T06:52:42.656Z,1.70
2023-02-27T06:53:42.643Z,2.00
2023-02-27T06:54:42.603Z,1.90
2023-02-27T06:55:42.575Z,2.00
2023-02-27T06:56:42.624Z,1.60
2023-02-27T06:57:42.563Z,1.40
2023-02-27T06:58:42.595Z,1.80
2023-02-27T06:59:42.532Z,1.40
2023-02-27T07:00:42.551Z,1.60
2023-02-27T07:01:42.589Z,1.70
2023-02-27T07:02:42.504Z,1.50
2023-02-27T07:03:42.545Z,1.60
2023-02-27T07:04:42.532Z,1.80
2023-02-27T07:05:42.482Z,1.80
2023-02-27T07:07:33.038Z,1.50
2023-02-27T07:07:43.585Z,1.50
2023-02-27T07:08:54.034Z,1.80
2023-02-27T07:09:43.488Z,1.80
2023-02-27T07:10:42.419Z,1.70
2023-02-27T07:11:42.406Z,1.60
2023-02-27T07:12:42.394Z,1.40
2023-02-27T07:13:42.415Z,1.70
2023-02-27T07:14:42.385Z,1.70
2023-02-27T07:15:42.487Z,1.70
2023-02-27T07:16:42.351Z,1.60
2023-02-27T07:17:42.348Z,1.60
2023-02-27T07:18:42.351Z,1.80
2023-02-27T07:19:42.326Z,1.70
2023-02-27T07:20:42.337Z,1.60
2023-02-27T07:21:42.330Z,1.50
2023-02-27T07:22:42.283Z,1.60
2023-02-27T07:23:42.273Z,1.70
2023-02-27T07:24:42.267Z,1.80
2023-02-27T07:25:42.261Z,1.50
2023-02-27T07:26:46.202Z,1.60
2023-02-27T07:27:42.227Z,1.60
2023-02-27T07:28:42.266Z,1.70
2023-02-27T07:29:42.233Z,1.60
2023-02-27T07:30:42.299Z,1.70
2023-02-27T07:31:42.193Z,1.50
2023-02-27T07:32:42.214Z,2.00
2023-02-27T07:33:42.188Z,1.50
2023-02-27T07:34:42.160Z,2.00
2023-02-27T07:35:42.174Z,1.80
2023-02-27T07:36:42.159Z,1.50
2023-02-27T07:37:42.125Z,1.60
2023-02-27T07:38:42.187Z,1.90
2023-02-27T07:39:42.136Z,1.80
2023-02-27T07:40:42.089Z,2.00
2023-02-27T07:41:42.082Z,1.90
2023-02-27T07:42:42.065Z,1.60
2023-02-27T07:43:42.079Z,1.90
2023-02-27T07:44:42.050Z,1.90
2023-02-27T07:45:42.033Z,1.90
2023-02-27T07:46:42.044Z,2.20
2023-02-27T07:47:42.032Z,1.80
2023-02-27T07:48:42.003Z,1.60
2023-02-27T07:49:42.014Z,1.80
2023-02-27T07:50:42.006Z,1.90
2023-02-27T07:51:41.970Z,2.10
2023-02-27T07:52:41.948Z,1.80
2023-02-27T07:53:41.968Z,1.90
2023-02-27T07:54:41.954Z,1.90
2023-02-27T07:55:41.980Z,2.10
2023-02-27T07:56:41.940Z,2.10
2023-02-27T07:57:41.918Z,1.70
2023-02-27T07:58:41.888Z,1.70
2023-02-27T07:59:41.862Z,1.50
2023-02-27T08:00:41.902Z,1.70
2023-02-27T08:01:41.868Z,1.40
2023-02-27T08:02:41.861Z,1.90
2023-02-27T08:03:41.821Z,5.30
2023-02-27T08:04:41.817Z,1.70
2023-02-27T08:05:41.883Z,1.50
2023-02-27T08:06:41.941Z,1.40
2023-02-27T08:07:41.775Z,1.20
2023-02-27T08:08:41.782Z,1.60
2023-02-27T08:09:41.757Z,1.30
2023-02-27T08:10:41.742Z,1.60
2023-02-27T08:11:41.747Z,1.40
2023-02-27T08:12:41.772Z,1.30
2023-02-27T08:13:59.667Z,1.40
2023-02-27T08:14:42.700Z,1.50
2023-02-27T08:15:41.676Z,1.30
2023-02-27T08:16:41.701Z,1.40
2023-02-27T08:17:41.669Z,1.20
2023-02-27T08:18:41.713Z,1.30
2023-02-27T08:19:41.673Z,1.20
2023-02-27T08:20:41.696Z,1.60
2023-02-27T08:21:41.635Z,1.20
2023-02-27T08:22:41.602Z,1.50
2023-02-27T08:23:42.704Z,1.70
2023-02-27T08:24:41.611Z,2.00
2023-02-27T08:25:41.587Z,1.20
2023-02-27T08:26:41.594Z,1.50
2023-02-27T08:27:41.557Z,2.70
2023-02-27T08:28:41.557Z,2.20
2023-02-27T08:29:41.584Z,1.40
2023-02-27T08:30:41.531Z,1.30
2023-02-27T08:31:41.571Z,1.20
2023-02-27T08:32:41.518Z,1.40
2023-02-27T08:33:41.494Z,1.30
2023-02-27T08:34:41.474Z,1.10
2023-02-27T08:35:41.513Z,1.80
2023-02-27T08:36:41.456Z,2.90
2023-02-27T08:37:41.442Z,1.80
2023-02-27T08:38:41.448Z,3.60
2023-02-27T08:39:41.409Z,2.60
2023-02-27T08:40:41.409Z,2.20
2023-02-27T08:41:41.443Z,1.90
2023-02-27T08:42:41.379Z,1.60
2023-02-27T08:43:41.369Z,1.60
2023-02-27T08:44:41.371Z,1.30
2023-02-27T08:45:41.373Z,1.50
2023-02-27T08:46:41.352Z,1.70
2023-02-27T08:47:41.332Z,2.30
2023-02-27T08:48:41.316Z,1.50
2023-02-27T08:49:41.338Z,1.50
2023-02-27T08:50:41.281Z,1.70
2023-02-27T08:51:41.277Z,1.10
2023-02-27T08:52:41.351Z,1.60
2023-02-27T08:53:41.269Z,1.60
2023-02-27T08:54:41.240Z,1.50
2023-02-27T08:55:41.230Z,1.30
2023-02-27T08:56:41.239Z,1.20
2023-02-27T08:57:41.229Z,1.10
2023-02-27T08:58:41.256Z,1.50
2023-02-27T08:59:41.198Z,1.40
2023-02-27T09:00:41.215Z,1.00
2023-02-27T09:01:41.198Z,1.10
2023-02-27T09:02:41.213Z,1.10
2023-02-27T09:03:41.157Z,1.10
2023-02-27T09:04:41.151Z,0.80
2023-02-27T09:05:41.147Z,0.90
2023-02-27T09:06:41.101Z,1.10
2023-02-27T09:07:41.141Z,1.20
2023-02-27T09:08:41.129Z,0.90
2023-02-27T09:09:41.073Z,1.30
2023-02-27T09:10:41.098Z,1.20
2023-02-27T09:11:41.057Z,0.80
2023-02-27T09:12:41.036Z,1.00
2023-02-27T09:13:41.035Z,0.90
2023-02-27T09:14:41.018Z,0.60
2023-02-27T09:15:41.025Z,1.00
2023-02-27T09:16:41.093Z,1.20
2023-02-27T09:17:40.983Z,0.90
2023-02-27T09:18:40.973Z,0.90
2023-02-27T09:19:40.972Z,1.00
2023-02-27T09:20:40.997Z,0.90
2023-02-27T09:21:40.950Z,1.10
2023-02-27T09:22:40.965Z,1.00
2023-02-27T09:23:40.942Z,1.00
2023-02-27T09:24:40.962Z,0.80
2023-02-27T09:25:40.904Z,1.00
2023-02-27T09:26:45.965Z,1.40
2023-02-27T09:27:41.905Z,1.10
2023-02-27T09:28:40.966Z,0.70
2023-02-27T09:29:40.866Z,1.20
2023-02-27T09:30:40.847Z,1.00
2023-02-27T09:31:40.891Z,0.90
2023-02-27T09:32:40.887Z,1.10
2023-02-27T09:33:40.880Z,1.00
2023-02-27T09:34:40.806Z,1.20
2023-02-27T09:35:40.807Z,1.10
2023-02-27T09:36:40.789Z,1.10
2023-02-27T09:37:40.781Z,0.90
2023-02-27T09:38:41.477Z,1.00
2023-02-27T09:39:40.851Z,0.80
2023-02-27T09:40:40.772Z,1.00
2023-02-27T09:41:40.742Z,0.80
2023-02-27T09:42:40.727Z,1.10
2023-02-27T09:43:40.847Z,1.30
2023-02-27T09:44:46.687Z,1.00
2023-02-27T09:45:41.700Z,1.10
2023-02-27T09:46:40.695Z,1.00
2023-02-27T09:47:40.689Z,1.10
2023-02-27T09:48:40.655Z,1.10
2023-02-27T09:49:40.684Z,0.90
2023-02-27T09:50:40.647Z,1.00
2023-02-27T09:51:40.640Z,0.90
2023-02-27T09:52:40.596Z,3.20
2023-02-27T09:53:40.607Z,1.40
2023-02-27T09:54:41.153Z,1.90
2023-02-27T09:55:40.594Z,0.90
2023-02-27T09:56:40.604Z,1.20
2023-02-27T09:57:40.558Z,0.80
2023-02-27T09:58:40.536Z,0.70
2023-02-27T09:59:40.523Z,0.80
2023-02-27T10:00:40.507Z,1.00
2023-02-27T10:01:40.597Z,0.80
2023-02-27T10:02:40.526Z,0.80
2023-02-27T10:03:40.522Z,1.00
2023-02-27T10:04:40.469Z,0.70
2023-02-27T10:05:40.459Z,0.90
2023-02-27T10:06:40.451Z,0.80
2023-02-27T10:07:40.496Z,0.70
2023-02-27T10:08:40.442Z,0.90
2023-02-27T10:09:40.436Z,0.80
2023-02-27T10:10:40.468Z,0.90
2023-02-27T10:11:40.382Z,0.80
2023-02-27T10:12:40.379Z,0.90
2023-02-27T10:13:40.406Z,0.90
2023-02-27T10:14:40.373Z,0.90
2023-02-27T10:15:40.339Z,0.90
2023-02-27T10:16:40.394Z,0.90
2023-02-27T10:17:40.323Z,0.90
2023-02-27T10:18:40.353Z,0.60
2023-02-27T10:19:40.294Z,0.90
2023-02-27T10:20:40.299Z,0.80
2023-02-27T10:21:40.285Z,0.80
2023-02-27T10:22:40.267Z,0.80
2023-02-27T10:23:40.248Z,0.80
2023-02-27T10:24:40.252Z,0.60
2023-02-27T10:25:40.247Z,0.90
2023-02-27T10:26:40.239Z,0.70
2023-02-27T10:27:40.205Z,0.70
2023-02-27T10:28:40.190Z,0.70
2023-02-27T10:29:40.272Z,0.70
2023-02-27T10:30:40.246Z,0.80
2023-02-27T10:31:40.180Z,0.80
2023-02-27T10:32:40.142Z,0.80
2023-02-27T10:33:40.151Z,0.60
2023-02-27T10:34:40.116Z,0.90
2023-02-27T10:35:40.156Z,0.70
2023-02-27T10:36:40.155Z,0.80
2023-02-27T10:37:40.091Z,0.80
2023-02-27T10:38:40.083Z,1.00
2023-02-27T10:39:40.070Z,0.70
2023-02-27T10:40:40.049Z,0.80
2023-02-27T10:41:40.185Z,0.70
2023-02-27T10:42:41.664Z,0.60
2023-02-27T10:43:40.046Z,0.80
2023-02-27T10:44:40.035Z,1.00
2023-02-27T10:45:39.986Z,0.80
2023-02-27T10:46:40.150Z,0.90
2023-02-27T10:47:39.968Z,0.90
2023-02-27T10:48:39.970Z,0.90
2023-02-27T10:49:39.991Z,0.70
2023-02-27T10:50:39.967Z,1.00
2023-02-27T10:51:39.926Z,0.70
2023-02-27T10:52:40.305Z,0.80
2023-02-27T10:53:39.911Z,0.90
2023-02-27T10:54:39.896Z,0.80
2023-02-27T10:55:39.900Z,0.70
2023-02-27T10:56:39.863Z,1.00
2023-02-27T10:57:39.900Z,0.80
2023-02-27T10:58:39.914Z,1.00
2023-02-27T10:59:39.822Z,0.70
2023-02-27T11:00:39.820Z,0.80
2023-02-27T11:01:39.838Z,0.70
2023-02-27T11:02:39.779Z,0.80
2023-02-27T11:03:41.320Z,0.70
2023-02-27T11:04:39.876Z,0.80
2023-02-27T11:05:39.779Z,0.80
2023-02-27T11:06:39.748Z,0.70
2023-02-27T11:07:39.785Z,0.70
2023-02-27T11:08:39.726Z,0.70
2023-02-27T11:09:39.715Z,0.60
2023-02-27T11:10:39.740Z,1.00
2023-02-27T11:11:39.699Z,0.90
2023-02-27T11:12:39.707Z,0.90
2023-02-27T11:13:39.657Z,0.60
2023-02-27T11:14:39.683Z,0.70
2023-02-27T11:15:39.667Z,0.60
2023-02-27T11:16:39.661Z,0.70
2023-02-27T11:17:39.603Z,0.70
2023-02-27T11:18:39.629Z,0.80
2023-02-27T11:19:39.594Z,0.80
2023-02-27T11:20:39.634Z,0.70
2023-02-27T11:21:39.565Z,0.60
2023-02-27T11:22:39.576Z,0.70
2023-02-27T11:23:39.541Z,0.60
2023-02-27T11:24:39.528Z,0.70
2023-02-27T11:25:39.535Z,0.60
2023-02-27T11:26:39.591Z,0.70
2023-02-27T11:27:39.517Z,0.40
2023-02-27T11:28:39.493Z,0.60
2023-02-27T11:29:39.468Z,0.70
2023-02-27T11:30:39.478Z,0.70
2023-02-27T11:31:39.469Z,0.60
2023-02-27T11:32:39.480Z,0.60
2023-02-27T11:33:39.443Z,0.60
2023-02-27T11:34:39.434Z,0.70
2023-02-27T11:35:39.435Z,0.70
2023-02-27T11:36:39.403Z,0.50
2023-02-27T11:37:39.391Z,0.90
2023-02-27T11:38:39.394Z,0.50
2023-02-27T11:39:39.365Z,0.60
2023-02-27T11:40:39.363Z,0.70
2023-02-27T11:41:39.340Z,0.60
2023-02-27T11:42:39.339Z,0.60
2023-02-27T11:43:39.338Z,0.60
2023-02-27T11:44:50.216Z,0.70
2023-02-27T11:46:04.844Z,0.50
2023-02-27T11:46:47.812Z,0.90
2023-02-27T11:47:40.284Z,0.60
2023-02-27T11:48:39.296Z,0.40
2023-02-27T11:49:39.262Z,0.70
2023-02-27T11:50:39.249Z,0.80
2023-02-27T11:51:39.245Z,0.60
2023-02-27T11:52:39.227Z,0.50
2023-02-27T11:53:39.234Z,0.60
2023-02-27T11:54:39.203Z,0.50
2023-02-27T11:55:39.252Z,0.50
2023-02-27T11:56:39.206Z,0.70
2023-02-27T11:57:39.186Z,0.40
2023-02-27T11:58:39.145Z,0.50
2023-02-27T11:59:39.180Z,0.70
2023-02-27T12:00:39.138Z,0.50
2023-02-27T12:01:39.125Z,0.50
2023-02-27T12:02:39.425Z,0.70
2023-02-27T12:03:39.212Z,0.40
2023-02-27T12:04:39.076Z,0.40
2023-02-27T12:05:39.115Z,0.60
2023-02-27T12:06:39.084Z,0.60
2023-02-27T12:07:39.039Z,0.70
2023-02-27T12:08:39.065Z,0.70
2023-02-27T12:09:39.019Z,0.70
2023-02-27T12:10:39.015Z,0.60
2023-02-27T12:11:38.996Z,0.60
2023-02-27T12:12:39.030Z,0.60
2023-02-27T12:13:38.986Z,0.60
2023-02-27T12:14:38.979Z,0.80
2023-02-27T12:15:38.959Z,0.60
2023-02-27T12:16:39.010Z,0.60
2023-02-27T12:17:38.977Z,0.70
2023-02-27T12:18:38.971Z,0.50
2023-02-27T12:19:38.916Z,0.60
2023-02-27T12:20:38.892Z,0.60
2023-02-27T12:21:38.877Z,0.50
2023-02-27T12:22:38.911Z,0.50
2023-02-27T12:23:38.859Z,0.50
2023-02-27T12:24:38.908Z,0.70
2023-02-27T12:25:38.847Z,0.60
2023-02-27T12:26:38.824Z,0.70
2023-02-27T12:27:38.807Z,0.90
2023-02-27T12:28:38.806Z,0.40
2023-02-27T12:29:39.036Z,0.60
2023-02-27T12:30:38.800Z,0.60
2023-02-27T12:31:38.849Z,0.50
2023-02-27T12:32:38.826Z,0.90
2023-02-27T12:33:38.734Z,0.70
2023-02-27T12:34:38.747Z,0.60
2023-02-27T12:35:38.768Z,0.70
2023-02-27T12:36:38.708Z,0.70
2023-02-27T12:37:38.724Z,0.60
2023-02-27T12:38:39.415Z,0.80
2023-02-27T12:39:38.674Z,0.70
2023-02-27T12:40:38.667Z,0.60
2023-02-27T12:41:38.696Z,0.60
2023-02-27T12:42:38.671Z,0.60
2023-02-27T12:43:38.623Z,0.70
2023-02-27T12:44:38.614Z,0.80
2023-02-27T12:45:38.617Z,0.60
2023-02-27T12:46:38.614Z,0.70
2023-02-27T12:47:38.604Z,0.70
2023-02-27T12:48:38.595Z,0.60
2023-02-27T12:49:38.572Z,0.40
2023-02-27T12:50:38.554Z,0.40
2023-02-27T12:51:38.553Z,0.60
2023-02-27T12:52:38.557Z,0.50
2023-02-27T12:53:38.542Z,0.60
2023-02-27T12:54:38.509Z,0.60
2023-02-27T12:55:38.483Z,0.50
2023-02-27T12:56:38.492Z,0.60
2023-02-27T12:57:38.487Z,0.60
2023-02-27T12:58:38.484Z,0.50
2023-02-27T12:59:38.432Z,0.50
2023-02-27T13:00:38.459Z,0.60
2023-02-27T13:01:38.463Z,0.50
2023-02-27T13:02:38.430Z,0.60
2023-02-27T13:03:38.522Z,0.60
2023-02-27T13:04:38.407Z,0.70
2023-02-27T13:05:38.372Z,0.70
2023-02-27T13:06:38.371Z,0.60
2023-02-27T13:07:38.348Z,0.50
2023-02-27T13:08:38.374Z,0.60
2023-02-27T13:09:38.398Z,0.70
2023-02-27T13:10:38.349Z,0.60
2023-02-27T13:11:38.321Z,0.50
2023-02-27T13:12:38.301Z,0.50
2023-02-27T13:13:38.281Z,0.50
2023-02-27T13:14:38.292Z,0.60
2023-02-27T13:15:38.342Z,0.70
2023-02-27T13:16:38.379Z,0.50
2023-02-27T13:17:38.252Z,0.60
2023-02-27T13:18:38.264Z,0.60